Strona główna
METAR-TAF:

METAR-TAF

Lotnisko :

Port lotniczy Alderney

Alderney,

Szerokość geograficzna: 49-43N, Długość geograficzna: 002-12W, wysokość: 71 m

Aktualna obserwacja pogody

Raport powstał 1 godzina i 10 minut temu, godzina 19:20 UTC
Wiatr 13 kt od zachód
Temperatura 16°C
Wilgotność 94%
Ciśnienie 1016 hPa
Widzialność 10 km lub więcej
Brak chmur poniżej 1500 m i brak chmur cumulonimbus

METAR: EGJA 201920Z 26013KT CAVOK 16/15 Q1016

czas: 21:30 (20:30 UTC)

Prognoza

Raport powstał 3 godziny i 34 minut temu, godzina 16:56 UTC
Prognoza ważna od 20 godzina 18 UTC do 21 godzina 03 UTC
Wiatr 11 kt od zachodnio-południowy zachód
Widzialność 10 km lub więcej
Mało chmury na wysokości 3000 ft

TAF: EGJA 201656Z 2018/2103 25011KT 9999 FEW030

Obserwacja i prognoza pogody dla ponad 4000 lotnisk (raport METAR i TAF).

Dostępne stacje oznaczono żółtymi i czerwonymi punktami na mapie.

Najedź kursorem aby zobaczyć nazwę stacji.

Kliknij aby zobaczyć obserwacje i prognozy pogody.

Aby zmienić mapę: kliknij na zielony przycisk z czarnym krzyżykiem, aby powiększyć; na zielony przycisk z myślnikiem, aby pomniejszyć; na zielone strzałki, aby przejść do map sąsiednich.


METAR-TAF: